sensor_id;sensor_type;location;lat;lon;timestamp;P1;P2;P0
72307;PMS5003;60257;42.638;23.376;2023-04-03T00:01:20;11.00;11.00;7.67
72307;PMS5003;60257;42.638;23.376;2023-04-03T00:03:46;11.67;11.33;8.00
72307;PMS5003;60257;42.638;23.376;2023-04-03T00:06:12;11.00;9.00;7.00
72307;PMS5003;60257;42.638;23.376;2023-04-03T00:08:38;10.67;10.67;7.00
72307;PMS5003;60257;42.638;23.376;2023-04-03T00:11:05;8.67;8.67;7.00
72307;PMS5003;60257;42.638;23.376;2023-04-03T00:13:32;12.00;11.00;8.00
72307;PMS5003;60257;42.638;23.376;2023-04-03T00:15:58;12.00;11.67;7.00
72307;PMS5003;60257;42.638;23.376;2023-04-03T00:18:23;15.67;11.00;8.00
72307;PMS5003;60257;42.638;23.376;2023-04-03T00:20:49;10.33;10.00;7.00
72307;PMS5003;60257;42.638;23.376;2023-04-03T00:23:15;8.67;8.67;7.33
72307;PMS5003;60257;42.638;23.376;2023-04-03T00:25:41;10.00;9.00;6.00
72307;PMS5003;60257;42.638;23.376;2023-04-03T00:28:07;12.00;12.00;7.00
72307;PMS5003;60257;42.638;23.376;2023-04-03T00:30:33;11.33;8.00;5.00
72307;PMS5003;60257;42.638;23.376;2023-04-03T00:32:58;12.00;12.00;7.67
72307;PMS5003;60257;42.638;23.376;2023-04-03T00:35:24;12.67;11.33;6.00
72307;PMS5003;60257;42.638;23.376;2023-04-03T00:37:53;14.33;11.33;7.00
72307;PMS5003;60257;42.638;23.376;2023-04-03T00:40:20;11.00;11.00;7.00
72307;PMS5003;60257;42.638;23.376;2023-04-03T00:42:48;12.00;12.00;6.33
72307;PMS5003;60257;42.638;23.376;2023-04-03T00:48:01;11.67;11.67;9.00
72307;PMS5003;60257;42.638;23.376;2023-04-03T00:50:30;10.00;10.00;5.00
72307;PMS5003;60257;42.638;23.376;2023-04-03T00:52:57;11.33;11.00;7.00
72307;PMS5003;60257;42.638;23.376;2023-04-03T00:55:23;11.00;10.33;6.67
72307;PMS5003;60257;42.638;23.376;2023-04-03T00:57:50;10.67;10.67;7.00
72307;PMS5003;60257;42.638;23.376;2023-04-03T01:00:18;13.33;11.00;7.00
72307;PMS5003;60257;42.638;23.376;2023-04-03T01:02:45;8.00;8.00;6.00
72307;PMS5003;60257;42.638;23.376;2023-04-03T01:05:11;12.00;11.67;7.33
72307;PMS5003;60257;42.638;23.376;2023-04-03T01:07:39;16.00;16.00;8.00
72307;PMS5003;60257;42.638;23.376;2023-04-03T01:10:07;14.00;14.00;9.00
72307;PMS5003;60257;42.638;23.376;2023-04-03T01:12:39;18.00;12.67;7.33
72307;PMS5003;60257;42.638;23.376;2023-04-03T01:15:14;12.33;12.00;8.00
72307;PMS5003;60257;42.638;23.376;2023-04-03T01:17:49;11.67;11.67;7.67
72307;PMS5003;60257;42.638;23.376;2023-04-03T01:25:32;11.00;11.00;7.00
72307;PMS5003;60257;42.638;23.376;2023-04-03T01:28:01;8.33;8.33;6.33
72307;PMS5003;60257;42.638;23.376;2023-04-03T01:30:32;13.00;13.00;9.00
72307;PMS5003;60257;42.638;23.376;2023-04-03T01:33:00;15.33;14.00;9.00
72307;PMS5003;60257;42.638;23.376;2023-04-03T01:35:25;9.00;9.00;6.00
72307;PMS5003;60257;42.638;23.376;2023-04-03T01:37:51;12.00;11.67;7.67
72307;PMS5003;60257;42.638;23.376;2023-04-03T01:40:16;10.00;10.00;7.00
72307;PMS5003;60257;42.638;23.376;2023-04-03T01:42:42;12.67;10.33;6.00
72307;PMS5003;60257;42.638;23.376;2023-04-03T01:45:08;10.67;10.67;7.33
72307;PMS5003;60257;42.638;23.376;2023-04-03T01:47:34;9.67;8.33;4.33
72307;PMS5003;60257;42.638;23.376;2023-04-03T01:50:00;14.00;12.33;7.00
72307;PMS5003;60257;42.638;23.376;2023-04-03T01:52:25;11.00;11.00;7.00
72307;PMS5003;60257;42.638;23.376;2023-04-03T01:54:51;12.00;11.00;6.00
72307;PMS5003;60257;42.638;23.376;2023-04-03T01:57:16;16.33;16.33;8.00
72307;PMS5003;60257;42.638;23.376;2023-04-03T01:59:42;13.33;11.67;6.67
72307;PMS5003;60257;42.638;23.376;2023-04-03T02:02:07;15.00;12.33;7.00
72307;PMS5003;60257;42.638;23.376;2023-04-03T02:04:33;14.00;14.00;10.67
72307;PMS5003;60257;42.638;23.376;2023-04-03T02:06:58;13.00;11.00;7.00
72307;PMS5003;60257;42.638;23.376;2023-04-03T02:09:24;11.33;11.33;7.67
72307;PMS5003;60257;42.638;23.376;2023-04-03T02:11:49;10.00;10.00;6.00
72307;PMS5003;60257;42.638;23.376;2023-04-03T02:14:15;14.33;11.67;9.00
72307;PMS5003;60257;42.638;23.376;2023-04-03T02:16:41;12.00;12.00;7.67
72307;PMS5003;60257;42.638;23.376;2023-04-03T02:19:06;13.33;12.33;7.67
72307;PMS5003;60257;42.638;23.376;2023-04-03T02:21:32;10.00;10.00;6.00
72307;PMS5003;60257;42.638;23.376;2023-04-03T02:23:57;10.67;10.67;7.67
72307;PMS5003;60257;42.638;23.376;2023-04-03T02:26:23;11.33;11.33;7.00
72307;PMS5003;60257;42.638;23.376;2023-04-03T02:28:48;10.67;10.67;6.67
72307;PMS5003;60257;42.638;23.376;2023-04-03T02:31:13;13.67;13.67;8.33
72307;PMS5003;60257;42.638;23.376;2023-04-03T02:33:39;14.67;12.00;7.00
72307;PMS5003;60257;42.638;23.376;2023-04-03T02:36:05;12.00;12.00;10.00
72307;PMS5003;60257;42.638;23.376;2023-04-03T02:38:32;16.33;15.00;13.00
72307;PMS5003;60257;42.638;23.376;2023-04-03T02:41:01;14.00;14.00;9.67
72307;PMS5003;60257;42.638;23.376;2023-04-03T02:43:27;16.00;16.00;10.00
72307;PMS5003;60257;42.638;23.376;2023-04-03T02:45:53;18.67;14.00;9.67
72307;PMS5003;60257;42.638;23.376;2023-04-03T02:48:18;13.67;13.67;9.67
72307;PMS5003;60257;42.638;23.376;2023-04-03T02:50:44;13.67;13.67;9.00
72307;PMS5003;60257;42.638;23.376;2023-04-03T02:53:09;12.67;12.33;8.00
72307;PMS5003;60257;42.638;23.376;2023-04-03T02:55:35;9.67;8.33;6.00
72307;PMS5003;60257;42.638;23.376;2023-04-03T02:58:00;12.33;10.00;7.67
72307;PMS5003;60257;42.638;23.376;2023-04-03T03:00:26;9.67;9.00;4.33
72307;PMS5003;60257;42.638;23.376;2023-04-03T03:02:51;12.67;10.00;5.33
72307;PMS5003;60257;42.638;23.376;2023-04-03T03:05:17;9.00;9.00;5.00
72307;PMS5003;60257;42.638;23.376;2023-04-03T03:07:42;11.33;10.00;7.00
72307;PMS5003;60257;42.638;23.376;2023-04-03T03:10:08;11.00;11.00;6.67
72307;PMS5003;60257;42.638;23.376;2023-04-03T03:12:34;13.33;13.00;7.00
72307;PMS5003;60257;42.638;23.376;2023-04-03T03:14:59;14.00;13.00;9.00
72307;PMS5003;60257;42.638;23.376;2023-04-03T03:17:25;20.67;18.33;11.33
72307;PMS5003;60257;42.638;23.376;2023-04-03T03:19:50;14.00;14.00;9.00
72307;PMS5003;60257;42.638;23.376;2023-04-03T03:22:16;14.00;13.00;7.67
72307;PMS5003;60257;42.638;23.376;2023-04-03T03:24:41;15.00;15.00;9.33
72307;PMS5003;60257;42.638;23.376;2023-04-03T03:27:07;15.67;14.67;11.00
72307;PMS5003;60257;42.638;23.376;2023-04-03T03:29:32;11.00;11.00;7.00
72307;PMS5003;60257;42.638;23.376;2023-04-03T03:31:58;17.33;17.33;9.67
72307;PMS5003;60257;42.638;23.376;2023-04-03T03:34:23;12.67;12.00;6.33
72307;PMS5003;60257;42.638;23.376;2023-04-03T03:36:49;18.33;18.33;11.00
72307;PMS5003;60257;42.638;23.376;2023-04-03T03:39:14;15.00;12.33;7.00
72307;PMS5003;60257;42.638;23.376;2023-04-03T03:41:40;15.67;12.33;8.33
72307;PMS5003;60257;42.638;23.376;2023-04-03T03:44:05;15.00;11.00;7.00
72307;PMS5003;60257;42.638;23.376;2023-04-03T03:46:31;14.00;14.00;8.33
72307;PMS5003;60257;42.638;23.376;2023-04-03T03:48:56;13.00;9.67;5.00
72307;PMS5003;60257;42.638;23.376;2023-04-03T03:51:22;11.00;9.33;6.00
72307;PMS5003;60257;42.638;23.376;2023-04-03T03:53:47;14.33;12.67;9.67
72307;PMS5003;60257;42.638;23.376;2023-04-03T03:56:13;11.00;7.00;6.00
72307;PMS5003;60257;42.638;23.376;2023-04-03T03:58:38;12.00;12.00;8.00
72307;PMS5003;60257;42.638;23.376;2023-04-03T04:01:04;16.00;13.00;10.00
72307;PMS5003;60257;42.638;23.376;2023-04-03T04:03:31;12.33;11.00;9.00
72307;PMS5003;60257;42.638;23.376;2023-04-03T04:05:56;10.00;10.00;6.00
72307;PMS5003;60257;42.638;23.376;2023-04-03T04:08:22;15.00;12.67;9.00
72307;PMS5003;60257;42.638;23.376;2023-04-03T04:10:48;13.67;11.67;9.00
72307;PMS5003;60257;42.638;23.376;2023-04-03T04:13:13;12.33;12.33;7.00
72307;PMS5003;60257;42.638;23.376;2023-04-03T04:15:39;15.67;15.67;10.00
72307;PMS5003;60257;42.638;23.376;2023-04-03T04:18:05;17.67;17.00;11.00
72307;PMS5003;60257;42.638;23.376;2023-04-03T04:20:31;14.00;14.00;9.00
72307;PMS5003;60257;42.638;23.376;2023-04-03T04:22:56;13.00;13.00;9.00
72307;PMS5003;60257;42.638;23.376;2023-04-03T04:25:22;13.67;13.67;10.00
72307;PMS5003;60257;42.638;23.376;2023-04-03T04:27:47;14.33;12.33;7.67
72307;PMS5003;60257;42.638;23.376;2023-04-03T04:30:14;20.67;17.00;10.67
72307;PMS5003;60257;42.638;23.376;2023-04-03T04:32:40;22.00;21.33;12.00
72307;PMS5003;60257;42.638;23.376;2023-04-03T04:35:05;18.67;17.67;13.00
72307;PMS5003;60257;42.638;23.376;2023-04-03T04:37:31;16.67;16.67;10.67
72307;PMS5003;60257;42.638;23.376;2023-04-03T04:39:57;22.33;19.67;14.67
72307;PMS5003;60257;42.638;23.376;2023-04-03T04:42:22;23.00;20.33;17.67
72307;PMS5003;60257;42.638;23.376;2023-04-03T04:44:48;22.25;20.00;13.75
72307;PMS5003;60257;42.638;23.376;2023-04-03T04:47:13;24.67;21.33;16.00
72307;PMS5003;60257;42.638;23.376;2023-04-03T04:49:39;21.33;18.33;13.33
72307;PMS5003;60257;42.638;23.376;2023-04-03T04:52:05;26.00;23.00;15.00
72307;PMS5003;60257;42.638;23.376;2023-04-03T04:54:31;18.33;16.33;10.00
72307;PMS5003;60257;42.638;23.376;2023-04-03T04:57:00;21.33;21.00;13.00
72307;PMS5003;60257;42.638;23.376;2023-04-03T04:59:26;16.00;16.00;11.33
72307;PMS5003;60257;42.638;23.376;2023-04-03T05:01:51;23.00;21.67;14.00
72307;PMS5003;60257;42.638;23.376;2023-04-03T05:04:17;20.00;20.00;15.00
72307;PMS5003;60257;42.638;23.376;2023-04-03T05:06:42;19.67;18.00;13.00
72307;PMS5003;60257;42.638;23.376;2023-04-03T05:09:08;23.67;20.33;14.00
72307;PMS5003;60257;42.638;23.376;2023-04-03T05:11:34;20.33;19.00;13.00
72307;PMS5003;60257;42.638;23.376;2023-04-03T05:14:00;20.67;19.33;12.33
72307;PMS5003;60257;42.638;23.376;2023-04-03T05:16:25;17.00;16.33;11.67
72307;PMS5003;60257;42.638;23.376;2023-04-03T05:18:51;26.00;25.33;18.00
72307;PMS5003;60257;42.638;23.376;2023-04-03T05:21:16;28.00;22.33;14.00
72307;PMS5003;60257;42.638;23.376;2023-04-03T05:23:43;21.67;18.00;13.00
72307;PMS5003;60257;42.638;23.376;2023-04-03T05:26:08;20.00;18.33;13.00
72307;PMS5003;60257;42.638;23.376;2023-04-03T05:28:34;21.33;18.33;10.67
72307;PMS5003;60257;42.638;23.376;2023-04-03T05:31:00;27.00;22.67;17.00
72307;PMS5003;60257;42.638;23.376;2023-04-03T05:33:25;25.67;24.33;14.33
72307;PMS5003;60257;42.638;23.376;2023-04-03T05:35:51;27.67;25.33;16.67
72307;PMS5003;60257;42.638;23.376;2023-04-03T05:38:17;49.25;43.50;28.25
72307;PMS5003;60257;42.638;23.376;2023-04-03T05:40:43;49.75;42.00;28.00
72307;PMS5003;60257;42.638;23.376;2023-04-03T05:43:09;31.00;27.00;20.00
72307;PMS5003;60257;42.638;23.376;2023-04-03T05:45:34;30.33;30.00;21.00
72307;PMS5003;60257;42.638;23.376;2023-04-03T05:48:00;25.00;25.00;14.33
72307;PMS5003;60257;42.638;23.376;2023-04-03T05:50:25;35.75;32.00;21.75
72307;PMS5003;60257;42.638;23.376;2023-04-03T05:52:51;27.33;26.67;18.67
72307;PMS5003;60257;42.638;23.376;2023-04-03T05:55:20;31.33;27.00;21.67
72307;PMS5003;60257;42.638;23.376;2023-04-03T05:57:45;26.33;26.33;19.67
72307;PMS5003;60257;42.638;23.376;2023-04-03T06:00:14;24.33;22.00;17.33
72307;PMS5003;60257;42.638;23.376;2023-04-03T06:02:41;28.67;27.00;20.00
72307;PMS5003;60257;42.638;23.376;2023-04-03T06:05:07;28.33;27.33;18.67
72307;PMS5003;60257;42.638;23.376;2023-04-03T06:07:33;37.00;35.75;25.00
72307;PMS5003;60257;42.638;23.376;2023-04-03T06:09:59;32.67;26.67;17.00
72307;PMS5003;60257;42.638;23.376;2023-04-03T06:12:26;18.67;17.33;12.33
72307;PMS5003;60257;42.638;23.376;2023-04-03T06:14:54;32.33;31.67;21.33
72307;PMS5003;60257;42.638;23.376;2023-04-03T06:17:20;33.67;30.67;21.33
72307;PMS5003;60257;42.638;23.376;2023-04-03T06:19:45;31.33;28.67;19.00
72307;PMS5003;60257;42.638;23.376;2023-04-03T06:22:11;28.67;28.67;20.67
72307;PMS5003;60257;42.638;23.376;2023-04-03T06:24:37;31.67;29.00;19.67
72307;PMS5003;60257;42.638;23.376;2023-04-03T06:27:03;34.67;30.00;22.00
72307;PMS5003;60257;42.638;23.376;2023-04-03T06:29:28;30.33;25.00;16.67
72307;PMS5003;60257;42.638;23.376;2023-04-03T06:31:54;20.67;20.33;12.67
72307;PMS5003;60257;42.638;23.376;2023-04-03T06:34:20;23.67;21.00;14.00
72307;PMS5003;60257;42.638;23.376;2023-04-03T06:36:46;19.00;19.00;12.33
72307;PMS5003;60257;42.638;23.376;2023-04-03T06:39:16;30.00;25.33;18.00
72307;PMS5003;60257;42.638;23.376;2023-04-03T06:41:46;29.33;25.00;17.33
72307;PMS5003;60257;42.638;23.376;2023-04-03T06:44:11;23.67;22.00;16.00
72307;PMS5003;60257;42.638;23.376;2023-04-03T06:46:38;26.00;26.00;18.33
72307;PMS5003;60257;42.638;23.376;2023-04-03T06:49:04;23.33;21.00;15.67
72307;PMS5003;60257;42.638;23.376;2023-04-03T06:51:33;24.33;23.67;15.00
72307;PMS5003;60257;42.638;23.376;2023-04-03T06:53:59;27.67;25.67;16.67
72307;PMS5003;60257;42.638;23.376;2023-04-03T06:56:26;38.33;35.33;23.33
72307;PMS5003;60257;42.638;23.376;2023-04-03T06:58:53;24.67;23.67;15.00
72307;PMS5003;60257;42.638;23.376;2023-04-03T07:01:26;25.67;23.67;16.00
72307;PMS5003;60257;42.638;23.376;2023-04-03T07:03:53;41.33;34.33;22.67
72307;PMS5003;60257;42.638;23.376;2023-04-03T07:06:18;27.67;25.33;17.33
72307;PMS5003;60257;42.638;23.376;2023-04-03T07:08:45;27.00;23.33;16.00
72307;PMS5003;60257;42.638;23.376;2023-04-03T07:11:11;27.33;25.33;19.67
72307;PMS5003;60257;42.638;23.376;2023-04-03T07:13:37;27.67;26.33;17.33
72307;PMS5003;60257;42.638;23.376;2023-04-03T07:16:03;31.00;25.67;18.67
72307;PMS5003;60257;42.638;23.376;2023-04-03T07:18:30;36.33;35.00;19.67
72307;PMS5003;60257;42.638;23.376;2023-04-03T07:20:57;36.67;35.33;24.00
72307;PMS5003;60257;42.638;23.376;2023-04-03T07:23:23;41.67;37.00;26.00
72307;PMS5003;60257;42.638;23.376;2023-04-03T07:25:50;44.33;39.00;27.00
72307;PMS5003;60257;42.638;23.376;2023-04-03T07:28:17;38.33;34.00;25.00
72307;PMS5003;60257;42.638;23.376;2023-04-03T07:30:48;40.00;36.00;24.67
72307;PMS5003;60257;42.638;23.376;2023-04-03T07:33:16;45.67;39.33;25.33
72307;PMS5003;60257;42.638;23.376;2023-04-03T07:35:43;45.50;39.00;27.00
72307;PMS5003;60257;42.638;23.376;2023-04-03T07:38:09;41.00;39.33;27.00
72307;PMS5003;60257;42.638;23.376;2023-04-03T07:40:35;42.00;36.67;25.00
72307;PMS5003;60257;42.638;23.376;2023-04-03T07:43:04;46.67;41.00;28.00
72307;PMS5003;60257;42.638;23.376;2023-04-03T07:45:30;48.67;40.33;26.33
72307;PMS5003;60257;42.638;23.376;2023-04-03T07:47:56;39.00;37.00;26.33
72307;PMS5003;60257;42.638;23.376;2023-04-03T07:50:27;40.50;37.25;26.00
72307;PMS5003;60257;42.638;23.376;2023-04-03T07:52:53;46.67;39.33;26.00
72307;PMS5003;60257;42.638;23.376;2023-04-03T07:55:21;48.50;42.25;27.75
72307;PMS5003;60257;42.638;23.376;2023-04-03T07:57:46;57.25;46.00;29.50
72307;PMS5003;60257;42.638;23.376;2023-04-03T08:00:12;61.25;49.00;34.50
72307;PMS5003;60257;42.638;23.376;2023-04-03T08:02:38;64.25;50.25;34.00
72307;PMS5003;60257;42.638;23.376;2023-04-03T08:05:04;60.50;49.50;33.75
72307;PMS5003;60257;42.638;23.376;2023-04-03T08:07:30;66.75;53.00;35.25
72307;PMS5003;60257;42.638;23.376;2023-04-03T08:09:56;60.25;49.00;33.50
72307;PMS5003;60257;42.638;23.376;2023-04-03T08:12:22;58.50;50.00;34.75
72307;PMS5003;60257;42.638;23.376;2023-04-03T08:14:47;59.00;49.00;33.00
72307;PMS5003;60257;42.638;23.376;2023-04-03T08:17:13;65.00;51.75;35.00
72307;PMS5003;60257;42.638;23.376;2023-04-03T08:19:39;62.00;51.00;34.25
72307;PMS5003;60257;42.638;23.376;2023-04-03T08:22:05;62.50;50.25;33.25
72307;PMS5003;60257;42.638;23.376;2023-04-03T08:24:34;60.75;48.75;31.50
72307;PMS5003;60257;42.638;23.376;2023-04-03T08:26:59;55.25;47.00;30.75
72307;PMS5003;60257;42.638;23.376;2023-04-03T08:29:26;56.25;44.25;29.00
72307;PMS5003;60257;42.638;23.376;2023-04-03T08:31:52;52.75;43.25;31.00
72307;PMS5003;60257;42.638;23.376;2023-04-03T08:34:17;56.25;45.75;30.75
72307;PMS5003;60257;42.638;23.376;2023-04-03T08:36:44;58.25;46.25;31.25
72307;PMS5003;60257;42.638;23.376;2023-04-03T08:39:10;55.75;46.00;31.00
72307;PMS5003;60257;42.638;23.376;2023-04-03T08:41:40;54.67;44.33;30.00
72307;PMS5003;60257;42.638;23.376;2023-04-03T08:49:37;49.67;42.33;27.67
72307;PMS5003;60257;42.638;23.376;2023-04-03T08:52:12;53.33;45.00;31.00
72307;PMS5003;60257;42.638;23.376;2023-04-03T08:54:50;48.33;42.00;30.00
72307;PMS5003;60257;42.638;23.376;2023-04-03T08:57:20;57.00;48.00;32.00
72307;PMS5003;60257;42.638;23.376;2023-04-03T08:59:53;50.33;44.00;30.00
72307;PMS5003;60257;42.638;23.376;2023-04-03T09:02:29;53.67;44.00;30.67
72307;PMS5003;60257;42.638;23.376;2023-04-03T09:04:59;48.00;40.67;26.67
72307;PMS5003;60257;42.638;23.376;2023-04-03T09:07:31;45.00;38.33;26.00
72307;PMS5003;60257;42.638;23.376;2023-04-03T09:10:03;32.67;32.67;21.00
72307;PMS5003;60257;42.638;23.376;2023-04-03T09:12:37;46.00;40.00;26.00
72307;PMS5003;60257;42.638;23.376;2023-04-03T09:23:27;47.00;38.67;25.67
72307;PMS5003;60257;42.638;23.376;2023-04-03T09:26:05;42.33;35.33;23.33
72307;PMS5003;60257;42.638;23.376;2023-04-03T09:28:37;41.67;35.00;23.67
72307;PMS5003;60257;42.638;23.376;2023-04-03T09:31:16;35.33;32.00;21.67
72307;PMS5003;60257;42.638;23.376;2023-04-03T09:33:46;33.00;30.67;20.33
72307;PMS5003;60257;42.638;23.376;2023-04-03T09:36:37;33.00;30.67;19.00
72307;PMS5003;60257;42.638;23.376;2023-04-03T09:39:10;26.00;25.00;17.33
72307;PMS5003;60257;42.638;23.376;2023-04-03T09:41:38;25.67;25.67;16.33
72307;PMS5003;60257;42.638;23.376;2023-04-03T09:44:04;24.00;22.67;17.00
72307;PMS5003;60257;42.638;23.376;2023-04-03T09:46:46;18.33;17.33;11.00
72307;PMS5003;60257;42.638;23.376;2023-04-03T09:49:12;14.00;14.00;9.00
72307;PMS5003;60257;42.638;23.376;2023-04-03T09:51:37;14.00;14.00;9.00
72307;PMS5003;60257;42.638;23.376;2023-04-03T09:57:01;22.33;20.00;14.00
72307;PMS5003;60257;42.638;23.376;2023-04-03T09:59:47;18.00;18.00;12.00
72307;PMS5003;60257;42.638;23.376;2023-04-03T10:02:34;18.00;17.33;11.33
72307;PMS5003;60257;42.638;23.376;2023-04-03T10:05:01;19.33;17.00;12.33
72307;PMS5003;60257;42.638;23.376;2023-04-03T10:07:34;17.00;16.00;11.00
72307;PMS5003;60257;42.638;23.376;2023-04-03T10:10:21;25.00;22.67;17.00
72307;PMS5003;60257;42.638;23.376;2023-04-03T10:15:56;14.33;14.33;7.33
72307;PMS5003;60257;42.638;23.376;2023-04-03T10:18:42;20.67;19.33;13.67
72307;PMS5003;60257;42.638;23.376;2023-04-03T10:21:58;12.67;8.67;5.67
72307;PMS5003;60257;42.638;23.376;2023-04-03T10:24:21;16.67;15.67;10.67
72307;PMS5003;60257;42.638;23.376;2023-04-03T10:32:23;17.67;16.33;10.67
72307;PMS5003;60257;42.638;23.376;2023-04-03T10:35:25;14.67;14.67;7.00
72307;PMS5003;60257;42.638;23.376;2023-04-03T10:38:03;10.00;9.33;5.33
72307;PMS5003;60257;42.638;23.376;2023-04-03T10:47:12;16.67;15.33;11.33
72307;PMS5003;60257;42.638;23.376;2023-04-03T10:52:28;15.00;12.67;7.00
72307;PMS5003;60257;42.638;23.376;2023-04-03T10:58:30;13.67;11.33;7.00
72307;PMS5003;60257;42.638;23.376;2023-04-03T11:01:01;13.67;12.00;9.00
72307;PMS5003;60257;42.638;23.376;2023-04-03T11:03:35;12.67;12.00;7.67
72307;PMS5003;60257;42.638;23.376;2023-04-03T11:06:07;11.33;11.33;9.00
72307;PMS5003;60257;42.638;23.376;2023-04-03T11:08:42;10.67;10.33;8.00
72307;PMS5003;60257;42.638;23.376;2023-04-03T11:11:13;12.00;10.33;6.00
72307;PMS5003;60257;42.638;23.376;2023-04-03T11:16:29;16.00;16.00;11.67
72307;PMS5003;60257;42.638;23.376;2023-04-03T11:22:00;15.33;15.33;11.00
72307;PMS5003;60257;42.638;23.376;2023-04-03T11:24:36;14.33;14.33;10.67
72307;PMS5003;60257;42.638;23.376;2023-04-03T11:27:08;17.00;16.00;12.67
72307;PMS5003;60257;42.638;23.376;2023-04-03T11:29:42;14.00;14.00;10.67
72307;PMS5003;60257;42.638;23.376;2023-04-03T11:32:15;8.00;8.00;5.00
72307;PMS5003;60257;42.638;23.376;2023-04-03T11:34:58;16.00;13.00;10.00
72307;PMS5003;60257;42.638;23.376;2023-04-03T11:37:40;15.33;15.33;10.33
72307;PMS5003;60257;42.638;23.376;2023-04-03T11:43:04;14.00;13.67;10.00
72307;PMS5003;60257;42.638;23.376;2023-04-03T11:45:36;14.00;14.00;10.00
72307;PMS5003;60257;42.638;23.376;2023-04-03T11:50:46;10.33;10.33;9.33
72307;PMS5003;60257;42.638;23.376;2023-04-03T11:55:57;16.00;15.67;9.33
72307;PMS5003;60257;42.638;23.376;2023-04-03T11:58:28;17.33;13.67;10.33
72307;PMS5003;60257;42.638;23.376;2023-04-03T12:19:00;14.00;14.00;10.00
72307;PMS5003;60257;42.638;23.376;2023-04-03T12:35:21;22.00;21.33;17.00
72307;PMS5003;60257;42.638;23.376;2023-04-03T12:40:42;18.33;17.33;13.00
72307;PMS5003;60257;42.638;23.376;2023-04-03T12:48:26;24.00;23.00;15.33
72307;PMS5003;60257;42.638;23.376;2023-04-03T12:50:54;22.00;19.67;15.00
72307;PMS5003;60257;42.638;23.376;2023-04-03T12:53:26;20.33;20.00;13.33
72307;PMS5003;60257;42.638;23.376;2023-04-03T12:56:18;21.67;21.33;16.00
72307;PMS5003;60257;42.638;23.376;2023-04-03T12:58:52;16.00;16.00;12.00
72307;PMS5003;60257;42.638;23.376;2023-04-03T13:01:26;18.67;17.00;13.00
72307;PMS5003;60257;42.638;23.376;2023-04-03T13:03:52;21.33;19.67;13.33
72307;PMS5003;60257;42.638;23.376;2023-04-03T13:06:24;17.00;16.00;9.67
72307;PMS5003;60257;42.638;23.376;2023-04-03T13:09:21;20.00;18.00;14.00
72307;PMS5003;60257;42.638;23.376;2023-04-03T13:11:52;20.67;16.00;10.00
72307;PMS5003;60257;42.638;23.376;2023-04-03T13:14:25;21.33;21.33;14.33
72307;PMS5003;60257;42.638;23.376;2023-04-03T13:19:22;21.00;20.00;14.00
72307;PMS5003;60257;42.638;23.376;2023-04-03T13:21:49;24.67;21.67;16.00
72307;PMS5003;60257;42.638;23.376;2023-04-03T13:24:18;14.33;14.33;9.33
72307;PMS5003;60257;42.638;23.376;2023-04-03T13:26:44;26.00;25.33;18.00
72307;PMS5003;60257;42.638;23.376;2023-04-03T13:29:24;25.67;25.67;18.00
72307;PMS5003;60257;42.638;23.376;2023-04-03T13:31:53;20.67;19.00;14.33
72307;PMS5003;60257;42.638;23.376;2023-04-03T13:34:21;17.33;15.33;13.33
72307;PMS5003;60257;42.638;23.376;2023-04-03T13:39:23;19.67;19.67;14.67
72307;PMS5003;60257;42.638;23.376;2023-04-03T13:41:58;24.00;23.00;15.00
72307;PMS5003;60257;42.638;23.376;2023-04-03T13:49:43;22.00;22.00;16.00
72307;PMS5003;60257;42.638;23.376;2023-04-03T13:52:21;27.00;25.67;17.33
72307;PMS5003;60257;42.638;23.376;2023-04-03T13:54:55;21.00;20.33;14.67
72307;PMS5003;60257;42.638;23.376;2023-04-03T13:57:26;26.33;25.00;16.33
72307;PMS5003;60257;42.638;23.376;2023-04-03T13:59:52;25.67;25.67;17.00
72307;PMS5003;60257;42.638;23.376;2023-04-03T14:04:55;27.33;27.33;18.00
72307;PMS5003;60257;42.638;23.376;2023-04-03T14:07:25;23.33;23.33;16.00
72307;PMS5003;60257;42.638;23.376;2023-04-03T14:09:51;31.00;28.33;22.33
72307;PMS5003;60257;42.638;23.376;2023-04-03T14:12:24;32.00;29.00;20.33
72307;PMS5003;60257;42.638;23.376;2023-04-03T14:14:51;33.67;33.00;23.33
72307;PMS5003;60257;42.638;23.376;2023-04-03T14:17:18;23.67;23.67;18.33
72307;PMS5003;60257;42.638;23.376;2023-04-03T14:19:46;25.33;22.33;16.00
72307;PMS5003;60257;42.638;23.376;2023-04-03T14:24:41;24.00;24.00;17.00
72307;PMS5003;60257;42.638;23.376;2023-04-03T14:30:03;23.00;23.00;15.67
72307;PMS5003;60257;42.638;23.376;2023-04-03T14:32:32;30.00;25.33;16.00
72307;PMS5003;60257;42.638;23.376;2023-04-03T14:34:57;22.00;22.00;16.33
72307;PMS5003;60257;42.638;23.376;2023-04-03T14:37:27;18.67;18.67;13.67
72307;PMS5003;60257;42.638;23.376;2023-04-03T14:39:54;23.67;23.67;15.00
72307;PMS5003;60257;42.638;23.376;2023-04-03T14:42:24;16.33;16.33;14.00
72307;PMS5003;60257;42.638;23.376;2023-04-03T14:44:55;17.00;17.00;10.33
72307;PMS5003;60257;42.638;23.376;2023-04-03T14:47:21;20.67;19.67;14.67
72307;PMS5003;60257;42.638;23.376;2023-04-03T14:49:51;17.00;15.00;8.33
72307;PMS5003;60257;42.638;23.376;2023-04-03T14:52:22;11.00;11.00;9.67
72307;PMS5003;60257;42.638;23.376;2023-04-03T14:54:50;19.33;15.67;9.33
72307;PMS5003;60257;42.638;23.376;2023-04-03T14:57:16;13.33;13.00;7.00
72307;PMS5003;60257;42.638;23.376;2023-04-03T14:59:43;23.00;22.33;15.00
72307;PMS5003;60257;42.638;23.376;2023-04-03T15:02:22;24.00;21.33;16.33
72307;PMS5003;60257;42.638;23.376;2023-04-03T15:04:51;21.67;21.00;14.33
72307;PMS5003;60257;42.638;23.376;2023-04-03T15:07:16;16.00;16.00;10.67
72307;PMS5003;60257;42.638;23.376;2023-04-03T15:09:42;20.00;19.00;14.67
72307;PMS5003;60257;42.638;23.376;2023-04-03T15:12:08;18.33;18.33;11.67
72307;PMS5003;60257;42.638;23.376;2023-04-03T15:14:35;19.00;19.00;14.00
72307;PMS5003;60257;42.638;23.376;2023-04-03T15:17:00;18.33;18.33;12.00
72307;PMS5003;60257;42.638;23.376;2023-04-03T15:19:26;32.00;29.67;19.00
72307;PMS5003;60257;42.638;23.376;2023-04-03T15:21:51;26.33;24.67;17.67
72307;PMS5003;60257;42.638;23.376;2023-04-03T15:24:17;27.00;25.67;18.33
72307;PMS5003;60257;42.638;23.376;2023-04-03T15:26:42;25.00;25.00;19.00
72307;PMS5003;60257;42.638;23.376;2023-04-03T15:29:08;27.33;27.33;18.67
72307;PMS5003;60257;42.638;23.376;2023-04-03T15:31:34;23.33;22.00;15.00
72307;PMS5003;60257;42.638;23.376;2023-04-03T15:33:59;25.33;24.00;18.33
72307;PMS5003;60257;42.638;23.376;2023-04-03T15:36:25;27.00;26.00;19.33
72307;PMS5003;60257;42.638;23.376;2023-04-03T15:38:50;29.00;28.67;20.00
72307;PMS5003;60257;42.638;23.376;2023-04-03T15:41:16;22.67;21.67;14.00
72307;PMS5003;60257;42.638;23.376;2023-04-03T15:43:41;25.33;25.33;18.00